sensor_id;sensor_type;location;lat;lon;timestamp;temperature;humidity
48162;DHT22;33950;48.154;16.316;2022-07-24T00:02:18;27.20;69.50
48162;DHT22;33950;48.154;16.316;2022-07-24T00:04:44;27.20;69.50
48162;DHT22;33950;48.154;16.316;2022-07-24T00:07:10;27.20;69.60
48162;DHT22;33950;48.154;16.316;2022-07-24T00:09:35;27.10;69.80
48162;DHT22;33950;48.154;16.316;2022-07-24T00:12:01;27.10;69.90
48162;DHT22;33950;48.154;16.316;2022-07-24T00:14:29;27.00;70.00
48162;DHT22;33950;48.154;16.316;2022-07-24T00:16:54;27.00;70.30
48162;DHT22;33950;48.154;16.316;2022-07-24T00:19:20;27.00;70.40
48162;DHT22;33950;48.154;16.316;2022-07-24T00:21:46;27.00;70.40
48162;DHT22;33950;48.154;16.316;2022-07-24T00:24:12;27.00;70.40
48162;DHT22;33950;48.154;16.316;2022-07-24T00:26:38;27.00;70.30
48162;DHT22;33950;48.154;16.316;2022-07-24T00:29:04;26.90;70.50
48162;DHT22;33950;48.154;16.316;2022-07-24T00:31:31;26.90;70.70
48162;DHT22;33950;48.154;16.316;2022-07-24T00:33:57;26.80;71.00
48162;DHT22;33950;48.154;16.316;2022-07-24T00:36:22;26.70;71.20
48162;DHT22;33950;48.154;16.316;2022-07-24T00:38:48;26.70;71.80
48162;DHT22;33950;48.154;16.316;2022-07-24T00:41:14;26.70;71.20
48162;DHT22;33950;48.154;16.316;2022-07-24T00:44:04;26.70;71.40
48162;DHT22;33950;48.154;16.316;2022-07-24T00:46:32;26.50;71.80
48162;DHT22;33950;48.154;16.316;2022-07-24T00:48:58;26.50;71.80
48162;DHT22;33950;48.154;16.316;2022-07-24T00:51:24;26.50;71.90
48162;DHT22;33950;48.154;16.316;2022-07-24T00:53:50;26.50;72.00
48162;DHT22;33950;48.154;16.316;2022-07-24T00:56:16;26.40;72.80
48162;DHT22;33950;48.154;16.316;2022-07-24T00:58:42;26.40;72.30
48162;DHT22;33950;48.154;16.316;2022-07-24T01:01:08;26.30;72.40
48162;DHT22;33950;48.154;16.316;2022-07-24T01:03:35;26.20;72.90
48162;DHT22;33950;48.154;16.316;2022-07-24T01:06:01;26.10;72.90
48162;DHT22;33950;48.154;16.316;2022-07-24T01:08:27;26.10;73.20
48162;DHT22;33950;48.154;16.316;2022-07-24T01:10:53;26.10;73.40
48162;DHT22;33950;48.154;16.316;2022-07-24T01:13:18;26.00;73.40
48162;DHT22;33950;48.154;16.316;2022-07-24T01:15:46;26.10;73.50
48162;DHT22;33950;48.154;16.316;2022-07-24T01:18:12;26.00;73.50
48162;DHT22;33950;48.154;16.316;2022-07-24T01:20:39;26.00;73.50
48162;DHT22;33950;48.154;16.316;2022-07-24T01:23:05;26.10;73.60
48162;DHT22;33950;48.154;16.316;2022-07-24T01:25:31;26.00;73.80
48162;DHT22;33950;48.154;16.316;2022-07-24T01:27:57;26.00;73.70
48162;DHT22;33950;48.154;16.316;2022-07-24T01:30:24;26.00;73.80
48162;DHT22;33950;48.154;16.316;2022-07-24T01:32:49;26.00;73.90
48162;DHT22;33950;48.154;16.316;2022-07-24T01:35:16;26.00;73.90
48162;DHT22;33950;48.154;16.316;2022-07-24T01:37:43;25.90;74.00
48162;DHT22;33950;48.154;16.316;2022-07-24T01:40:10;25.80;74.40
48162;DHT22;33950;48.154;16.316;2022-07-24T01:42:36;25.70;75.30
48162;DHT22;33950;48.154;16.316;2022-07-24T01:45:02;25.60;75.30
48162;DHT22;33950;48.154;16.316;2022-07-24T01:47:28;25.60;75.10
48162;DHT22;33950;48.154;16.316;2022-07-24T01:49:54;25.60;75.00
48162;DHT22;33950;48.154;16.316;2022-07-24T01:52:20;25.60;75.10
48162;DHT22;33950;48.154;16.316;2022-07-24T01:54:47;25.60;75.10
48162;DHT22;33950;48.154;16.316;2022-07-24T01:57:13;25.70;75.70
48162;DHT22;33950;48.154;16.316;2022-07-24T01:59:38;25.60;75.20
48162;DHT22;33950;48.154;16.316;2022-07-24T02:02:04;25.60;75.40
48162;DHT22;33950;48.154;16.316;2022-07-24T02:04:30;25.50;75.70
48162;DHT22;33950;48.154;16.316;2022-07-24T02:06:56;25.40;75.90
48162;DHT22;33950;48.154;16.316;2022-07-24T02:09:21;25.40;76.10
48162;DHT22;33950;48.154;16.316;2022-07-24T02:11:49;25.40;76.00
48162;DHT22;33950;48.154;16.316;2022-07-24T02:14:14;25.40;76.10
48162;DHT22;33950;48.154;16.316;2022-07-24T02:16:40;25.40;76.30
48162;DHT22;33950;48.154;16.316;2022-07-24T02:19:06;25.30;77.00
48162;DHT22;33950;48.154;16.316;2022-07-24T02:21:32;25.10;76.80
48162;DHT22;33950;48.154;16.316;2022-07-24T02:23:58;25.10;77.00
48162;DHT22;33950;48.154;16.316;2022-07-24T02:26:23;25.10;77.20
48162;DHT22;33950;48.154;16.316;2022-07-24T02:28:51;25.20;77.20
48162;DHT22;33950;48.154;16.316;2022-07-24T02:31:16;25.10;77.20
48162;DHT22;33950;48.154;16.316;2022-07-24T02:33:42;25.10;77.30
48162;DHT22;33950;48.154;16.316;2022-07-24T02:36:08;25.10;77.40
48162;DHT22;33950;48.154;16.316;2022-07-24T02:38:34;25.00;77.70
48162;DHT22;33950;48.154;16.316;2022-07-24T02:41:00;24.90;78.00
48162;DHT22;33950;48.154;16.316;2022-07-24T02:43:26;25.00;78.00
48162;DHT22;33950;48.154;16.316;2022-07-24T02:45:53;24.90;78.20
48162;DHT22;33950;48.154;16.316;2022-07-24T02:48:19;24.90;78.20
48162;DHT22;33950;48.154;16.316;2022-07-24T02:50:45;24.90;78.10
48162;DHT22;33950;48.154;16.316;2022-07-24T02:53:11;24.90;78.40
48162;DHT22;33950;48.154;16.316;2022-07-24T02:55:37;24.90;78.60
48162;DHT22;33950;48.154;16.316;2022-07-24T02:58:03;24.70;79.00
48162;DHT22;33950;48.154;16.316;2022-07-24T03:00:29;24.60;79.10
48162;DHT22;33950;48.154;16.316;2022-07-24T03:02:57;24.60;79.90
48162;DHT22;33950;48.154;16.316;2022-07-24T03:05:22;24.60;79.60
48162;DHT22;33950;48.154;16.316;2022-07-24T03:07:48;24.50;79.90
48162;DHT22;33950;48.154;16.316;2022-07-24T03:10:15;24.40;80.70
48162;DHT22;33950;48.154;16.316;2022-07-24T03:12:41;24.30;80.10
48162;DHT22;33950;48.154;16.316;2022-07-24T03:15:08;24.30;80.40
48162;DHT22;33950;48.154;16.316;2022-07-24T03:17:34;24.30;80.70
48162;DHT22;33950;48.154;16.316;2022-07-24T03:20:03;24.30;80.50
48162;DHT22;33950;48.154;16.316;2022-07-24T03:22:29;24.20;80.70
48162;DHT22;33950;48.154;16.316;2022-07-24T03:24:54;24.20;80.70
48162;DHT22;33950;48.154;16.316;2022-07-24T03:27:20;24.30;80.60
48162;DHT22;33950;48.154;16.316;2022-07-24T03:29:46;24.30;80.50
48162;DHT22;33950;48.154;16.316;2022-07-24T03:32:12;24.30;80.70
48162;DHT22;33950;48.154;16.316;2022-07-24T03:34:38;24.20;81.30
48162;DHT22;33950;48.154;16.316;2022-07-24T03:37:05;24.10;81.10
48162;DHT22;33950;48.154;16.316;2022-07-24T03:39:31;24.10;81.20
48162;DHT22;33950;48.154;16.316;2022-07-24T03:41:56;24.10;81.20
48162;DHT22;33950;48.154;16.316;2022-07-24T03:44:22;24.10;81.20
48162;DHT22;33950;48.154;16.316;2022-07-24T03:46:48;24.10;81.10
48162;DHT22;33950;48.154;16.316;2022-07-24T03:49:14;24.30;80.90
48162;DHT22;33950;48.154;16.316;2022-07-24T03:51:39;24.30;80.90
48162;DHT22;33950;48.154;16.316;2022-07-24T03:54:07;24.30;80.70
48162;DHT22;33950;48.154;16.316;2022-07-24T03:56:32;24.40;80.80
48162;DHT22;33950;48.154;16.316;2022-07-24T03:58:58;24.30;80.80
48162;DHT22;33950;48.154;16.316;2022-07-24T04:01:24;24.40;80.60
48162;DHT22;33950;48.154;16.316;2022-07-24T04:03:50;24.40;81.20
48162;DHT22;33950;48.154;16.316;2022-07-24T04:06:16;24.40;80.70
48162;DHT22;33950;48.154;16.316;2022-07-24T04:08:41;24.20;81.00
48162;DHT22;33950;48.154;16.316;2022-07-24T04:11:09;24.00;82.30
48162;DHT22;33950;48.154;16.316;2022-07-24T04:13:34;23.90;82.50
48162;DHT22;33950;48.154;16.316;2022-07-24T04:16:00;23.90;81.90
48162;DHT22;33950;48.154;16.316;2022-07-24T04:18:26;24.00;81.80
48162;DHT22;33950;48.154;16.316;2022-07-24T04:20:52;24.00;82.30
48162;DHT22;33950;48.154;16.316;2022-07-24T04:23:18;24.00;81.80
48162;DHT22;33950;48.154;16.316;2022-07-24T04:25:44;23.90;82.00
48162;DHT22;33950;48.154;16.316;2022-07-24T04:28:12;23.90;82.00
48162;DHT22;33950;48.154;16.316;2022-07-24T04:30:38;23.90;82.30
48162;DHT22;33950;48.154;16.316;2022-07-24T04:33:03;24.00;82.10
48162;DHT22;33950;48.154;16.316;2022-07-24T04:35:29;24.00;82.00
48162;DHT22;33950;48.154;16.316;2022-07-24T04:37:55;24.10;81.90
48162;DHT22;33950;48.154;16.316;2022-07-24T04:40:21;24.10;81.70
48162;DHT22;33950;48.154;16.316;2022-07-24T04:42:46;24.10;81.80
48162;DHT22;33950;48.154;16.316;2022-07-24T04:45:14;24.20;81.70
48162;DHT22;33950;48.154;16.316;2022-07-24T04:47:39;24.20;81.60
48162;DHT22;33950;48.154;16.316;2022-07-24T04:50:06;24.30;81.50
48162;DHT22;33950;48.154;16.316;2022-07-24T04:52:33;24.40;81.30
48162;DHT22;33950;48.154;16.316;2022-07-24T04:54:58;24.40;81.20
48162;DHT22;33950;48.154;16.316;2022-07-24T04:57:24;24.40;81.70
48162;DHT22;33950;48.154;16.316;2022-07-24T04:59:50;24.30;81.20
48162;DHT22;33950;48.154;16.316;2022-07-24T05:02:17;24.40;81.20
48162;DHT22;33950;48.154;16.316;2022-07-24T05:04:43;24.30;81.20
48162;DHT22;33950;48.154;16.316;2022-07-24T05:07:09;24.30;81.10
48162;DHT22;33950;48.154;16.316;2022-07-24T05:09:34;24.40;81.10
48162;DHT22;33950;48.154;16.316;2022-07-24T05:12:00;24.30;81.20
48162;DHT22;33950;48.154;16.316;2022-07-24T05:14:26;24.30;81.10
48162;DHT22;33950;48.154;16.316;2022-07-24T05:16:52;24.30;81.00
48162;DHT22;33950;48.154;16.316;2022-07-24T05:19:19;24.30;81.00
48162;DHT22;33950;48.154;16.316;2022-07-24T05:21:45;24.40;81.40
48162;DHT22;33950;48.154;16.316;2022-07-24T05:24:10;24.40;80.60
48162;DHT22;33950;48.154;16.316;2022-07-24T05:26:36;24.40;80.50
48162;DHT22;33950;48.154;16.316;2022-07-24T05:29:03;24.50;80.70
48162;DHT22;33950;48.154;16.316;2022-07-24T05:31:31;24.60;80.30
48162;DHT22;33950;48.154;16.316;2022-07-24T05:33:57;24.60;80.10
48162;DHT22;33950;48.154;16.316;2022-07-24T05:36:25;24.60;80.10
48162;DHT22;33950;48.154;16.316;2022-07-24T05:38:51;24.60;78.70
48162;DHT22;33950;48.154;16.316;2022-07-24T05:41:17;24.50;78.80
48162;DHT22;33950;48.154;16.316;2022-07-24T05:43:42;24.50;79.20
48162;DHT22;33950;48.154;16.316;2022-07-24T05:46:08;24.40;78.80
48162;DHT22;33950;48.154;16.316;2022-07-24T05:48:34;24.30;78.80
48162;DHT22;33950;48.154;16.316;2022-07-24T05:51:00;24.20;78.90
48162;DHT22;33950;48.154;16.316;2022-07-24T05:53:27;24.20;78.30
48162;DHT22;33950;48.154;16.316;2022-07-24T05:55:53;24.30;78.00
48162;DHT22;33950;48.154;16.316;2022-07-24T05:58:19;24.20;78.10
48162;DHT22;33950;48.154;16.316;2022-07-24T06:00:45;24.30;77.70
48162;DHT22;33950;48.154;16.316;2022-07-24T06:03:12;24.40;77.60
48162;DHT22;33950;48.154;16.316;2022-07-24T06:05:38;24.50;77.30
48162;DHT22;33950;48.154;16.316;2022-07-24T06:08:04;24.50;77.00
48162;DHT22;33950;48.154;16.316;2022-07-24T06:10:32;24.50;76.90
48162;DHT22;33950;48.154;16.316;2022-07-24T06:12:58;24.60;76.40
48162;DHT22;33950;48.154;16.316;2022-07-24T06:15:23;24.60;76.20
48162;DHT22;33950;48.154;16.316;2022-07-24T06:17:49;24.70;76.20
48162;DHT22;33950;48.154;16.316;2022-07-24T06:20:16;24.70;76.00
48162;DHT22;33950;48.154;16.316;2022-07-24T06:22:43;24.70;76.00
48162;DHT22;33950;48.154;16.316;2022-07-24T06:25:10;24.60;75.50
48162;DHT22;33950;48.154;16.316;2022-07-24T06:27:41;24.50;75.80
48162;DHT22;33950;48.154;16.316;2022-07-24T06:30:11;24.50;76.00
48162;DHT22;33950;48.154;16.316;2022-07-24T06:32:37;24.60;75.60
48162;DHT22;33950;48.154;16.316;2022-07-24T06:35:03;24.60;75.60
48162;DHT22;33950;48.154;16.316;2022-07-24T06:37:29;24.70;74.80
48162;DHT22;33950;48.154;16.316;2022-07-24T06:39:55;24.60;75.00
48162;DHT22;33950;48.154;16.316;2022-07-24T06:42:20;24.40;75.70
48162;DHT22;33950;48.154;16.316;2022-07-24T06:44:48;24.50;75.40
48162;DHT22;33950;48.154;16.316;2022-07-24T06:47:13;24.60;75.10
48162;DHT22;33950;48.154;16.316;2022-07-24T06:49:39;24.70;74.60
48162;DHT22;33950;48.154;16.316;2022-07-24T06:52:05;24.60;74.40
48162;DHT22;33950;48.154;16.316;2022-07-24T06:54:31;24.60;74.40
48162;DHT22;33950;48.154;16.316;2022-07-24T06:56:56;24.70;74.20
48162;DHT22;33950;48.154;16.316;2022-07-24T06:59:22;24.70;74.20
48162;DHT22;33950;48.154;16.316;2022-07-24T07:01:49;24.70;74.70
48162;DHT22;33950;48.154;16.316;2022-07-24T07:04:15;24.80;74.00
48162;DHT22;33950;48.154;16.316;2022-07-24T07:06:41;24.90;74.00
48162;DHT22;33950;48.154;16.316;2022-07-24T07:09:07;25.00;73.90
48162;DHT22;33950;48.154;16.316;2022-07-24T07:11:32;25.00;74.00
48162;DHT22;33950;48.154;16.316;2022-07-24T07:13:58;25.10;73.70
48162;DHT22;33950;48.154;16.316;2022-07-24T07:16:24;25.10;73.80
48162;DHT22;33950;48.154;16.316;2022-07-24T07:18:52;25.10;73.10
48162;DHT22;33950;48.154;16.316;2022-07-24T07:21:17;25.10;73.40
48162;DHT22;33950;48.154;16.316;2022-07-24T07:23:43;25.10;73.50
48162;DHT22;33950;48.154;16.316;2022-07-24T07:26:09;24.90;73.80
48162;DHT22;33950;48.154;16.316;2022-07-24T07:28:35;24.80;73.70
48162;DHT22;33950;48.154;16.316;2022-07-24T07:31:01;24.80;73.80
48162;DHT22;33950;48.154;16.316;2022-07-24T07:33:26;25.00;73.20
48162;DHT22;33950;48.154;16.316;2022-07-24T07:35:54;25.10;72.30
48162;DHT22;33950;48.154;16.316;2022-07-24T07:38:19;25.10;72.60
48162;DHT22;33950;48.154;16.316;2022-07-24T07:40:46;25.30;72.10
48162;DHT22;33950;48.154;16.316;2022-07-24T07:43:11;25.30;71.60
48162;DHT22;33950;48.154;16.316;2022-07-24T07:45:37;25.40;71.40
48162;DHT22;33950;48.154;16.316;2022-07-24T07:48:03;25.50;71.20
48162;DHT22;33950;48.154;16.316;2022-07-24T07:50:29;25.60;70.00
48162;DHT22;33950;48.154;16.316;2022-07-24T07:52:57;25.60;69.80
48162;DHT22;33950;48.154;16.316;2022-07-24T07:55:23;25.60;70.30
48162;DHT22;33950;48.154;16.316;2022-07-24T07:57:48;25.70;69.50
48162;DHT22;33950;48.154;16.316;2022-07-24T08:00:15;25.50;68.50
48162;DHT22;33950;48.154;16.316;2022-07-24T08:02:42;25.50;68.70
48162;DHT22;33950;48.154;16.316;2022-07-24T08:05:08;25.60;69.00
48162;DHT22;33950;48.154;16.316;2022-07-24T08:07:35;25.70;69.30
48162;DHT22;33950;48.154;16.316;2022-07-24T08:10:03;25.80;68.40
48162;DHT22;33950;48.154;16.316;2022-07-24T08:12:29;25.60;68.50
48162;DHT22;33950;48.154;16.316;2022-07-24T08:14:54;25.70;67.30
48162;DHT22;33950;48.154;16.316;2022-07-24T08:17:20;25.70;67.80
48162;DHT22;33950;48.154;16.316;2022-07-24T08:19:46;25.70;67.50
48162;DHT22;33950;48.154;16.316;2022-07-24T08:22:12;25.90;67.20
48162;DHT22;33950;48.154;16.316;2022-07-24T08:24:38;25.80;66.20
48162;DHT22;33950;48.154;16.316;2022-07-24T08:27:06;25.70;66.70
48162;DHT22;33950;48.154;16.316;2022-07-24T08:29:32;25.80;66.40
48162;DHT22;33950;48.154;16.316;2022-07-24T08:32:01;25.80;67.20
48162;DHT22;33950;48.154;16.316;2022-07-24T08:34:29;25.80;66.70
48162;DHT22;33950;48.154;16.316;2022-07-24T08:36:57;25.90;66.50
48162;DHT22;33950;48.154;16.316;2022-07-24T08:39:25;26.00;66.30
48162;DHT22;33950;48.154;16.316;2022-07-24T08:41:51;25.90;66.40
48162;DHT22;33950;48.154;16.316;2022-07-24T08:44:19;26.00;66.40
48162;DHT22;33950;48.154;16.316;2022-07-24T08:46:44;26.10;66.50
48162;DHT22;33950;48.154;16.316;2022-07-24T08:49:14;26.20;66.70
48162;DHT22;33950;48.154;16.316;2022-07-24T08:51:41;26.20;65.50
48162;DHT22;33950;48.154;16.316;2022-07-24T08:54:11;26.20;65.00
48162;DHT22;33950;48.154;16.316;2022-07-24T08:56:40;26.20;65.40
48162;DHT22;33950;48.154;16.316;2022-07-24T08:59:17;26.20;65.40
48162;DHT22;33950;48.154;16.316;2022-07-24T09:01:48;26.20;65.40
48162;DHT22;33950;48.154;16.316;2022-07-24T09:04:34;26.10;65.50
48162;DHT22;33950;48.154;16.316;2022-07-24T09:07:01;25.90;64.80
48162;DHT22;33950;48.154;16.316;2022-07-24T09:09:30;25.90;65.50
48162;DHT22;33950;48.154;16.316;2022-07-24T09:12:05;26.00;64.90
48162;DHT22;33950;48.154;16.316;2022-07-24T09:14:31;26.10;64.30
48162;DHT22;33950;48.154;16.316;2022-07-24T09:17:03;26.20;64.70
48162;DHT22;33950;48.154;16.316;2022-07-24T09:19:29;26.20;64.00
48162;DHT22;33950;48.154;16.316;2022-07-24T09:21:55;26.30;64.30
48162;DHT22;33950;48.154;16.316;2022-07-24T09:24:22;26.30;63.50
48162;DHT22;33950;48.154;16.316;2022-07-24T09:26:49;26.30;63.60
48162;DHT22;33950;48.154;16.316;2022-07-24T09:29:16;26.40;63.60
48162;DHT22;33950;48.154;16.316;2022-07-24T09:31:56;26.30;63.50
48162;DHT22;33950;48.154;16.316;2022-07-24T09:34:25;26.30;63.90
48162;DHT22;33950;48.154;16.316;2022-07-24T09:36:59;26.40;63.60
48162;DHT22;33950;48.154;16.316;2022-07-24T09:39:26;26.50;63.50
48162;DHT22;33950;48.154;16.316;2022-07-24T09:41:53;26.50;62.80
48162;DHT22;33950;48.154;16.316;2022-07-24T09:44:19;26.50;62.60
48162;DHT22;33950;48.154;16.316;2022-07-24T09:46:46;26.50;62.90
48162;DHT22;33950;48.154;16.316;2022-07-24T09:49:18;26.60;62.50
48162;DHT22;33950;48.154;16.316;2022-07-24T09:52:10;26.70;62.30
48162;DHT22;33950;48.154;16.316;2022-07-24T09:54:38;26.70;61.60
48162;DHT22;33950;48.154;16.316;2022-07-24T09:57:18;26.70;62.10
48162;DHT22;33950;48.154;16.316;2022-07-24T09:59:46;26.80;61.20
48162;DHT22;33950;48.154;16.316;2022-07-24T10:02:14;26.70;62.40
48162;DHT22;33950;48.154;16.316;2022-07-24T10:04:42;26.80;62.00
48162;DHT22;33950;48.154;16.316;2022-07-24T10:07:11;26.80;61.70
48162;DHT22;33950;48.154;16.316;2022-07-24T10:09:41;27.00;61.60
48162;DHT22;33950;48.154;16.316;2022-07-24T10:12:11;27.10;61.20
48162;DHT22;33950;48.154;16.316;2022-07-24T10:14:38;27.10;60.90
48162;DHT22;33950;48.154;16.316;2022-07-24T10:17:06;27.10;60.40
48162;DHT22;33950;48.154;16.316;2022-07-24T10:19:39;27.10;61.00
48162;DHT22;33950;48.154;16.316;2022-07-24T10:22:11;27.10;60.60
48162;DHT22;33950;48.154;16.316;2022-07-24T10:24:56;27.20;60.60
48162;DHT22;33950;48.154;16.316;2022-07-24T10:27:26;27.30;60.80
48162;DHT22;33950;48.154;16.316;2022-07-24T10:29:53;27.20;59.60
48162;DHT22;33950;48.154;16.316;2022-07-24T10:32:20;27.20;60.50
48162;DHT22;33950;48.154;16.316;2022-07-24T10:34:50;27.30;60.00
48162;DHT22;33950;48.154;16.316;2022-07-24T10:37:23;27.40;60.10
48162;DHT22;33950;48.154;16.316;2022-07-24T10:39:58;27.60;60.20
48162;DHT22;33950;48.154;16.316;2022-07-24T10:42:30;27.90;60.80
48162;DHT22;33950;48.154;16.316;2022-07-24T10:45:15;28.20;59.70
48162;DHT22;33950;48.154;16.316;2022-07-24T10:47:42;28.30;58.70
48162;DHT22;33950;48.154;16.316;2022-07-24T10:50:08;28.50;57.60
48162;DHT22;33950;48.154;16.316;2022-07-24T10:52:36;28.80;57.70
48162;DHT22;33950;48.154;16.316;2022-07-24T10:55:23;29.10;57.90
48162;DHT22;33950;48.154;16.316;2022-07-24T10:57:54;29.30;57.00
48162;DHT22;33950;48.154;16.316;2022-07-24T11:00:22;29.60;56.90
48162;DHT22;33950;48.154;16.316;2022-07-24T11:02:55;30.00;55.90
48162;DHT22;33950;48.154;16.316;2022-07-24T11:05:26;30.20;55.80
48162;DHT22;33950;48.154;16.316;2022-07-24T11:11:11;30.60;54.90
48162;DHT22;33950;48.154;16.316;2022-07-24T11:13:44;30.80;54.30
48162;DHT22;33950;48.154;16.316;2022-07-24T11:16:18;30.60;53.40
48162;DHT22;33950;48.154;16.316;2022-07-24T11:21:45;30.80;54.10
48162;DHT22;33950;48.154;16.316;2022-07-24T11:24:15;31.20;54.40
48162;DHT22;33950;48.154;16.316;2022-07-24T11:26:50;31.70;53.90
48162;DHT22;33950;48.154;16.316;2022-07-24T11:29:17;31.90;53.00
48162;DHT22;33950;48.154;16.316;2022-07-24T11:31:44;32.20;53.30
48162;DHT22;33950;48.154;16.316;2022-07-24T11:34:11;32.60;53.60
48162;DHT22;33950;48.154;16.316;2022-07-24T11:36:40;32.80;51.60
48162;DHT22;33950;48.154;16.316;2022-07-24T11:39:06;32.40;52.30
48162;DHT22;33950;48.154;16.316;2022-07-24T11:41:43;31.90;52.20
48162;DHT22;33950;48.154;16.316;2022-07-24T11:44:11;31.50;53.50
48162;DHT22;33950;48.154;16.316;2022-07-24T11:46:38;31.50;53.90
48162;DHT22;33950;48.154;16.316;2022-07-24T11:49:06;31.40;53.70
48162;DHT22;33950;48.154;16.316;2022-07-24T11:51:39;31.50;54.70
48162;DHT22;33950;48.154;16.316;2022-07-24T11:54:05;31.80;53.50
48162;DHT22;33950;48.154;16.316;2022-07-24T11:56:32;31.90;52.70
48162;DHT22;33950;48.154;16.316;2022-07-24T11:58:58;32.10;53.10
48162;DHT22;33950;48.154;16.316;2022-07-24T12:01:25;32.20;53.00
48162;DHT22;33950;48.154;16.316;2022-07-24T12:03:51;32.00;53.40
48162;DHT22;33950;48.154;16.316;2022-07-24T12:06:18;32.00;53.60
48162;DHT22;33950;48.154;16.316;2022-07-24T12:08:44;32.30;53.50
48162;DHT22;33950;48.154;16.316;2022-07-24T12:11:10;32.40;52.40
48162;DHT22;33950;48.154;16.316;2022-07-24T12:13:41;32.30;53.20
48162;DHT22;33950;48.154;16.316;2022-07-24T12:16:09;32.20;53.10
48162;DHT22;33950;48.154;16.316;2022-07-24T12:18:36;32.30;52.80
48162;DHT22;33950;48.154;16.316;2022-07-24T12:21:03;32.30;52.70
48162;DHT22;33950;48.154;16.316;2022-07-24T12:23:29;32.30;53.70
48162;DHT22;33950;48.154;16.316;2022-07-24T12:25:55;32.60;53.30
48162;DHT22;33950;48.154;16.316;2022-07-24T12:28:21;32.90;53.90
48162;DHT22;33950;48.154;16.316;2022-07-24T12:30:49;33.20;53.20
48162;DHT22;33950;48.154;16.316;2022-07-24T12:33:20;33.50;54.10
48162;DHT22;33950;48.154;16.316;2022-07-24T12:35:55;33.70;53.50
48162;DHT22;33950;48.154;16.316;2022-07-24T12:38:26;33.80;51.80
48162;DHT22;33950;48.154;16.316;2022-07-24T12:41:01;33.70;52.20
48162;DHT22;33950;48.154;16.316;2022-07-24T12:43:27;33.80;53.30
48162;DHT22;33950;48.154;16.316;2022-07-24T12:46:04;34.10;52.90
48162;DHT22;33950;48.154;16.316;2022-07-24T12:48:31;34.20;52.30
48162;DHT22;33950;48.154;16.316;2022-07-24T12:51:16;34.10;51.90
48162;DHT22;33950;48.154;16.316;2022-07-24T12:53:42;34.20;52.30
48162;DHT22;33950;48.154;16.316;2022-07-24T12:56:10;34.40;52.20
48162;DHT22;33950;48.154;16.316;2022-07-24T12:59:06;34.40;51.80
48162;DHT22;33950;48.154;16.316;2022-07-24T13:01:47;34.50;53.70
48162;DHT22;33950;48.154;16.316;2022-07-24T13:04:16;34.80;52.40
48162;DHT22;33950;48.154;16.316;2022-07-24T13:06:44;34.70;51.60
48162;DHT22;33950;48.154;16.316;2022-07-24T13:09:13;34.20;51.10
48162;DHT22;33950;48.154;16.316;2022-07-24T13:11:40;33.90;50.90
48162;DHT22;33950;48.154;16.316;2022-07-24T13:14:08;33.40;51.20
48162;DHT22;33950;48.154;16.316;2022-07-24T13:16:36;33.20;51.90
48162;DHT22;33950;48.154;16.316;2022-07-24T13:19:03;33.20;52.20
48162;DHT22;33950;48.154;16.316;2022-07-24T13:21:30;33.40;52.00
48162;DHT22;33950;48.154;16.316;2022-07-24T13:23:57;33.40;51.50
48162;DHT22;33950;48.154;16.316;2022-07-24T13:26:23;33.50;52.20
48162;DHT22;33950;48.154;16.316;2022-07-24T13:28:50;33.40;52.30
48162;DHT22;33950;48.154;16.316;2022-07-24T13:31:16;33.20;52.10
48162;DHT22;33950;48.154;16.316;2022-07-24T13:33:45;33.20;52.40
48162;DHT22;33950;48.154;16.316;2022-07-24T13:36:11;33.20;52.00
48162;DHT22;33950;48.154;16.316;2022-07-24T13:38:37;33.10;52.20
48162;DHT22;33950;48.154;16.316;2022-07-24T13:41:05;32.80;52.10
48162;DHT22;33950;48.154;16.316;2022-07-24T13:43:30;33.00;52.90
48162;DHT22;33950;48.154;16.316;2022-07-24T13:45:56;33.30;52.20
48162;DHT22;33950;48.154;16.316;2022-07-24T13:48:22;33.50;52.40
48162;DHT22;33950;48.154;16.316;2022-07-24T13:50:48;33.30;51.40
48162;DHT22;33950;48.154;16.316;2022-07-24T13:53:14;33.50;52.50
48162;DHT22;33950;48.154;16.316;2022-07-24T13:55:40;33.70;51.10
48162;DHT22;33950;48.154;16.316;2022-07-24T13:58:07;33.70;51.30
48162;DHT22;33950;48.154;16.316;2022-07-24T14:00:33;33.60;51.10
48162;DHT22;33950;48.154;16.316;2022-07-24T14:02:59;33.50;51.90
48162;DHT22;33950;48.154;16.316;2022-07-24T14:05:25;33.60;51.60
48162;DHT22;33950;48.154;16.316;2022-07-24T14:07:52;33.50;51.90
48162;DHT22;33950;48.154;16.316;2022-07-24T14:10:18;33.70;51.10
48162;DHT22;33950;48.154;16.316;2022-07-24T14:12:44;33.70;51.90
48162;DHT22;33950;48.154;16.316;2022-07-24T14:15:12;33.60;50.80
48162;DHT22;33950;48.154;16.316;2022-07-24T14:17:38;33.40;51.30
48162;DHT22;33950;48.154;16.316;2022-07-24T14:20:05;33.50;51.70
48162;DHT22;33950;48.154;16.316;2022-07-24T14:22:33;33.70;50.80
48162;DHT22;33950;48.154;16.316;2022-07-24T14:24:58;34.10;51.20
48162;DHT22;33950;48.154;16.316;2022-07-24T14:27:24;34.30;51.80
48162;DHT22;33950;48.154;16.316;2022-07-24T14:29:50;34.50;50.30
48162;DHT22;33950;48.154;16.316;2022-07-24T14:32:17;34.30;50.60
48162;DHT22;33950;48.154;16.316;2022-07-24T14:34:43;34.40;51.10
48162;DHT22;33950;48.154;16.316;2022-07-24T14:37:09;34.30;50.70
48162;DHT22;33950;48.154;16.316;2022-07-24T14:39:35;34.10;50.30
48162;DHT22;33950;48.154;16.316;2022-07-24T14:42:00;33.80;50.40
48162;DHT22;33950;48.154;16.316;2022-07-24T14:44:26;33.60;50.30
48162;DHT22;33950;48.154;16.316;2022-07-24T14:46:52;33.40;50.70
48162;DHT22;33950;48.154;16.316;2022-07-24T14:49:19;33.40;51.50
48162;DHT22;33950;48.154;16.316;2022-07-24T14:51:45;33.70;51.60
48162;DHT22;33950;48.154;16.316;2022-07-24T14:54:11;34.00;51.70
48162;DHT22;33950;48.154;16.316;2022-07-24T14:56:37;34.20;51.20
48162;DHT22;33950;48.154;16.316;2022-07-24T14:59:03;34.40;52.00
48162;DHT22;33950;48.154;16.316;2022-07-24T15:01:29;34.30;51.30
48162;DHT22;33950;48.154;16.316;2022-07-24T15:03:55;34.10;50.40
48162;DHT22;33950;48.154;16.316;2022-07-24T15:06:22;33.90;50.80
48162;DHT22;33950;48.154;16.316;2022-07-24T15:08:48;33.90;50.40
48162;DHT22;33950;48.154;16.316;2022-07-24T15:11:14;33.80;50.70
48162;DHT22;33950;48.154;16.316;2022-07-24T15:13:40;34.00;50.50
48162;DHT22;33950;48.154;16.316;2022-07-24T15:16:06;33.90;51.00
48162;DHT22;33950;48.154;16.316;2022-07-24T15:18:33;34.00;50.80
48162;DHT22;33950;48.154;16.316;2022-07-24T15:20:59;34.20;50.60
48162;DHT22;33950;48.154;16.316;2022-07-24T15:23:26;34.30;50.80